Time;durP1;ratioP1;P1;durP2;ratioP2;P2;SDS_P1;SDS_P2;PMS_P1;PMS_P2;Temp;Humidity;BMP_temperature;BMP_pressure;BME280_temperature;BME280_humidity;BME280_pressure;Samples;Min_cycle;Max_cycle;Signal;HPM_P1;HPM_P2
2020/12/11 00:01:34;;;;;;;14.80;8.98;;;;;;;3.47;85.03;100844.64;1768715;81;25615;-56
2020/12/11 00:04:04;;;;;;;13.00;8.63;;;;;;;3.42;84.53;100852.42;1769674;79;25713;-56
2020/12/11 00:06:33;;;;;;;14.28;8.33;;;;;;;3.42;84.65;100867.05;1768865;81;26374;-56
2020/12/11 00:09:01;;;;;;;14.87;9.13;;;;;;;3.46;84.74;100863.73;1768682;81;25700;-56
2020/12/11 00:11:30;;;;;;;12.30;7.75;;;;;;;3.52;84.76;100870.52;1769044;79;27528;-55
2020/12/11 00:13:59;;;;;;;13.20;8.10;;;;;;;3.50;84.26;100879.89;1768938;79;25686;-56
2020/12/11 00:16:27;;;;;;;10.98;8.50;;;;;;;3.41;83.59;100879.96;1768799;81;25937;-56
2020/12/11 00:18:55;;;;;;;14.23;8.38;;;;;;;3.35;83.77;100872.34;1768827;80;25655;-57
2020/12/11 00:21:23;;;;;;;12.63;9.10;;;;;;;3.38;84.29;100877.95;1768818;81;25943;-56
2020/12/11 00:23:52;;;;;;;17.23;9.18;;;;;;;3.40;84.43;100874.73;1768950;79;27526;-56
2020/12/11 00:26:20;;;;;;;14.20;8.83;;;;;;;3.43;84.40;100874.54;1768802;81;25722;-56
2020/12/11 00:28:48;;;;;;;14.63;9.18;;;;;;;3.35;83.51;100864.36;1768663;81;25659;-56
2020/12/11 00:31:23;;;;;;;15.55;9.43;;;;;;;3.26;83.61;100872.38;1768730;81;25702;-56
2020/12/11 00:33:52;;;;;;;15.75;9.98;;;;;;;3.22;83.76;100878.82;1768941;79;25675;-56
2020/12/11 00:36:22;;;;;;;11.97;9.78;;;;;;;3.17;83.59;100887.52;1768883;81;27634;-56
2020/12/11 00:38:52;;;;;;;23.15;11.60;;;;;;;3.05;83.52;100882.89;1768662;81;25497;-56
2020/12/11 00:41:20;;;;;;;15.50;10.00;;;;;;;3.01;83.66;100882.66;1772727;79;25630;-56
2020/12/11 00:43:48;;;;;;;15.43;10.93;;;;;;;3.03;83.79;100876.31;1778356;79;26141;-56
2020/12/11 00:46:23;;;;;;;12.03;9.23;;;;;;;3.00;83.70;100875.62;1768722;80;25830;-56
2020/12/11 00:48:53;;;;;;;13.60;9.63;;;;;;;2.94;83.60;100880.80;1768551;81;27513;-56
2020/12/11 00:51:22;;;;;;;14.70;8.88;;;;;;;2.89;83.56;100885.05;1768717;81;25473;-56
2020/12/11 00:53:50;;;;;;;12.90;9.05;;;;;;;2.89;83.74;100882.39;1768753;79;25665;-56
2020/12/11 00:56:20;;;;;;;12.93;8.45;;;;;;;2.95;84.19;100882.07;1768851;81;25697;-56
2020/12/11 00:58:47;;;;;;;11.35;9.20;;;;;;;2.99;84.24;100880.10;1768774;79;26261;-56
2020/12/11 01:01:15;;;;;;;11.53;8.73;;;;;;;3.05;84.44;100882.41;1714432;82;28214;-56
2020/12/11 01:03:44;;;;;;;10.43;7.78;;;;;;;3.09;84.43;100882.61;1768896;79;25717;-56
2020/12/11 01:06:11;;;;;;;12.03;8.28;;;;;;;3.16;84.47;100883.63;1768918;79;25703;-56
2020/12/11 01:08:39;;;;;;;15.72;9.65;;;;;;;3.21;84.61;100872.24;1768774;80;26422;-56
2020/12/11 01:11:07;;;;;;;14.68;9.48;;;;;;;3.25;84.44;100877.30;1768717;81;25914;-56
2020/12/11 01:13:35;;;;;;;12.70;9.18;;;;;;;3.36;84.81;100865.20;1768791;79;27519;-56
2020/12/11 01:16:03;;;;;;;14.15;8.15;;;;;;;3.49;85.00;100872.88;1769045;79;25673;-56
2020/12/11 01:18:30;;;;;;;11.48;8.75;;;;;;;3.53;84.50;100877.55;1768774;81;25686;-56
2020/12/11 01:20:58;;;;;;;10.98;8.10;;;;;;;3.57;84.46;100883.06;1768790;81;26001;-56
2020/12/11 01:23:26;;;;;;;11.03;8.03;;;;;;;3.60;84.17;100881.08;1768936;79;25703;-56
2020/12/11 01:25:54;;;;;;;14.00;7.67;;;;;;;3.63;84.28;100877.37;1786147;78;27357;-56
2020/12/11 01:28:23;;;;;;;11.38;8.40;;;;;;;3.66;84.14;100882.53;1800225;79;26153;-56
2020/12/11 01:30:51;;;;;;;13.65;8.23;;;;;;;3.71;84.33;100872.50;1795252;79;25470;-56
2020/12/11 01:33:20;;;;;;;13.03;8.58;;;;;;;3.69;83.44;100871.72;1768937;79;26567;-56
2020/12/11 01:35:48;;;;;;;10.72;7.87;;;;;;;3.59;82.84;100859.41;1768877;81;25774;-56
2020/12/11 01:38:16;;;;;;;13.13;7.47;;;;;;;3.50;82.82;100854.63;1768849;80;28367;-56
2020/12/11 01:40:44;;;;;;;14.70;8.58;;;;;;;3.41;82.77;100849.38;1768625;81;25600;-56
2020/12/11 01:43:14;;;;;;;14.18;7.75;;;;;;;3.45;83.44;100844.73;1784487;79;25730;-56
2020/12/11 01:45:42;;;;;;;10.98;8.53;;;;;;;3.53;83.85;100840.31;1795994;79;25593;-56
2020/12/11 01:48:10;;;;;;;10.03;7.22;;;;;;;3.57;83.51;100844.48;1768823;80;25728;-56
2020/12/11 01:50:39;;;;;;;13.08;8.40;;;;;;;3.57;83.61;100837.84;1768459;81;27598;-56
2020/12/11 01:53:09;;;;;;;12.23;8.25;;;;;;;3.61;83.57;100842.05;1768773;79;25667;-56
2020/12/11 01:55:39;;;;;;;15.13;9.58;;;;;;;3.69;83.85;100841.13;1768739;81;25746;-55
2020/12/11 01:58:15;;;;;;;14.18;8.35;;;;;;;3.78;84.16;100835.72;1768731;79;26829;-56
2020/12/11 02:00:47;;;;;;;12.28;9.25;;;;;;;3.90;84.24;100831.01;1768639;80;25701;-56
2020/12/11 02:03:18;;;;;;;12.53;8.60;;;;;;;3.97;83.83;100823.52;1769572;79;27527;-56
2020/12/11 02:05:46;;;;;;;16.23;8.75;;;;;;;3.95;83.37;100823.20;1773909;78;26148;-56
2020/12/11 02:08:14;;;;;;;16.15;7.30;;;;;;;3.95;83.66;100825.41;1833456;77;25732;-56
2020/12/11 02:10:47;;;;;;;13.35;9.03;;;;;;;3.99;83.89;100828.74;1808837;77;26279;-56
2020/12/11 02:13:14;;;;;;;11.63;8.45;;;;;;;4.04;83.78;100822.66;1768947;79;25614;-56
2020/12/11 02:15:42;;;;;;;12.25;8.93;;;;;;;4.12;84.05;100816.87;1768822;81;27537;-56
2020/12/11 02:18:10;;;;;;;12.95;8.45;;;;;;;4.12;83.67;100813.75;1768628;79;26114;-57
2020/12/11 02:20:38;;;;;;;13.58;9.18;;;;;;;4.06;83.04;100806.99;1768583;79;25674;-56
2020/12/11 02:23:07;;;;;;;13.13;8.85;;;;;;;4.03;83.09;100811.65;1770592;79;25916;-56
2020/12/11 02:25:35;;;;;;;14.10;9.10;;;;;;;4.06;83.51;100802.13;1794018;79;25660;-57
2020/12/11 02:28:03;;;;;;;16.55;9.00;;;;;;;4.04;83.37;100804.02;1792665;79;27525;-57
2020/12/11 02:30:30;;;;;;;12.43;8.68;;;;;;;4.04;83.29;100801.36;1793794;79;25666;-57
2020/12/11 02:32:58;;;;;;;12.68;9.38;;;;;;;4.00;83.23;100799.36;1793798;79;25716;-55
2020/12/11 02:35:27;;;;;;;11.85;8.08;;;;;;;4.03;83.59;100803.17;1793719;79;26051;-56
2020/12/11 02:37:54;;;;;;;13.18;8.35;;;;;;;4.06;83.64;100803.45;1784130;79;26685;-56
2020/12/11 02:40:22;;;;;;;15.72;8.58;;;;;;;4.03;83.24;100801.84;1762626;79;27361;-56
2020/12/11 02:42:51;;;;;;;12.95;9.08;;;;;;;4.07;83.73;100810.50;1793671;79;25742;-56
2020/12/11 02:45:19;;;;;;;17.92;10.00;;;;;;;4.12;83.78;100809.77;1793537;79;25643;-56
2020/12/11 02:47:47;;;;;;;13.53;8.18;;;;;;;4.18;83.92;100812.50;1763301;79;25691;-56
2020/12/11 02:50:15;;;;;;;14.73;9.18;;;;;;;4.21;83.88;100821.15;1762540;81;25474;-58
2020/12/11 02:52:42;;;;;;;15.83;8.55;;;;;;;4.20;83.67;100816.80;1762547;79;27631;-56
2020/12/11 02:55:10;;;;;;;16.12;8.48;;;;;;;4.23;83.88;100819.75;1762421;80;25661;-56
2020/12/11 02:57:40;;;;;;;12.78;8.43;;;;;;;4.22;83.44;100828.19;1762950;79;26126;-56
2020/12/11 03:00:09;;;;;;;12.95;8.48;;;;;;;4.21;83.50;100832.29;1762556;81;25523;-56
2020/12/11 03:02:37;;;;;;;13.13;8.30;;;;;;;4.19;83.56;100833.73;1762338;81;25496;-56
2020/12/11 03:05:05;;;;;;;14.55;8.80;;;;;;;4.15;83.51;100839.33;1762414;81;27517;-56
2020/12/11 03:07:33;;;;;;;15.23;9.73;;;;;;;4.17;83.89;100832.95;1762505;79;26055;-56
2020/12/11 03:10:01;;;;;;;12.03;8.13;;;;;;;4.27;84.21;100834.56;1762505;80;25452;-56
2020/12/11 03:12:29;;;;;;;14.30;9.60;;;;;;;4.34;84.08;100832.39;1762322;80;25971;-55
2020/12/11 03:14:57;;;;;;;17.57;9.55;;;;;;;4.31;83.87;100827.24;1743966;82;25692;-56
2020/12/11 03:17:25;;;;;;;12.25;8.78;;;;;;;4.37;84.25;100831.73;1780686;79;28948;-56
2020/12/11 03:19:53;;;;;;;16.35;9.28;;;;;;;4.38;84.12;100828.61;1762587;79;26580;-56
2020/12/11 03:22:21;;;;;;;17.65;10.00;;;;;;;4.41;83.85;100831.55;1763572;79;25519;-56
2020/12/11 03:24:49;;;;;;;13.90;9.28;;;;;;;4.44;83.96;100836.70;1771422;80;26221;-56
2020/12/11 03:27:18;;;;;;;15.35;9.43;;;;;;;4.47;84.07;100841.81;1772524;80;26328;-56
2020/12/11 03:29:46;;;;;;;24.37;10.65;;;;;;;4.49;84.25;100835.43;1773374;80;27523;-56
2020/12/11 03:32:14;;;;;;;19.37;10.35;;;;;;;4.51;83.96;100834.02;1773223;80;25506;-56
2020/12/11 03:34:42;;;;;;;16.65;9.55;;;;;;;4.54;84.39;100833.81;1773462;80;25676;-55
2020/12/11 03:37:11;;;;;;;19.50;11.03;;;;;;;4.56;84.17;100833.73;1773492;80;25854;-56
2020/12/11 03:39:39;;;;;;;20.92;11.33;;;;;;;4.63;84.46;100839.06;1743657;80;25613;-56
2020/12/11 03:42:08;;;;;;;16.27;10.20;;;;;;;4.72;84.77;100843.81;1750765;80;27520;-56
2020/12/11 03:44:35;;;;;;;20.23;11.50;;;;;;;4.79;84.43;100849.62;1773255;80;25465;-56
2020/12/11 03:47:04;;;;;;;15.00;10.32;;;;;;;4.83;84.44;100845.33;1772121;80;25700;-56
2020/12/11 03:49:32;;;;;;;15.38;10.08;;;;;;;4.90;84.60;100841.77;1744890;80;25641;-56
2020/12/11 03:52:00;;;;;;;21.37;10.93;;;;;;;4.95;84.52;100842.36;1742939;80;25622;-56
2020/12/11 03:54:28;;;;;;;19.77;10.28;;;;;;;5.00;84.30;100842.91;1742789;80;28472;-56
2020/12/11 03:56:56;;;;;;;15.63;10.30;;;;;;;5.01;84.19;100848.62;1742693;82;25429;-56
2020/12/11 03:59:24;;;;;;;17.90;10.08;;;;;;;5.05;84.01;100844.44;1768208;80;25672;-56
2020/12/11 04:01:52;;;;;;;21.65;11.00;;;;;;;5.04;83.87;100850.72;1773516;80;26389;-56
2020/12/11 04:04:21;;;;;;;19.57;10.95;;;;;;;5.06;84.28;100852.81;1773475;80;25479;-56
2020/12/11 04:06:49;;;;;;;37.05;12.80;;;;;;;5.12;84.67;100857.25;1773313;80;27501;-56
2020/12/11 04:09:17;;;;;;;31.42;12.20;;;;;;;5.26;85.70;100843.52;1749492;80;25618;-56
2020/12/11 04:11:45;;;;;;;36.83;14.58;;;;;;;5.44;86.53;100840.10;1742897;81;25718;-56
2020/12/11 04:14:13;;;;;;;30.37;14.15;;;;;;;5.65;87.65;100840.48;1742679;82;25626;-56
2020/12/11 04:16:41;;;;;;;30.68;13.93;;;;;;;5.88;88.29;100834.93;1748097;80;25418;-55
2020/12/11 04:19:09;;;;;;;30.48;13.43;;;;;;;6.08;88.21;100835.42;1751433;80;28404;-56
2020/12/11 04:21:37;;;;;;;38.90;17.52;;;;;;;6.22;88.15;100828.66;1742791;80;26191;-56
2020/12/11 04:24:05;;;;;;;31.87;15.10;;;;;;;6.38;88.60;100838.27;1749141;81;25608;-56
2020/12/11 04:26:33;;;;;;;36.80;13.50;;;;;;;6.47;88.44;100840.77;1762664;81;25612;-55
2020/12/11 04:29:01;;;;;;;31.05;13.40;;;;;;;6.56;88.22;100837.44;1762734;79;25659;-56
2020/12/11 04:31:28;;;;;;;30.35;13.08;;;;;;;6.67;88.75;100837.55;1762848;79;28499;-56
2020/12/11 04:33:56;;;;;;;33.33;13.75;;;;;;;6.76;88.74;100844.07;1762766;79;26611;-56
2020/12/11 04:36:25;;;;;;;30.23;13.05;;;;;;;6.83;88.49;100846.67;1762674;80;25654;-56
2020/12/11 04:38:52;;;;;;;28.35;12.73;;;;;;;6.89;88.37;100846.22;1762545;79;26467;-56
2020/12/11 04:41:22;;;;;;;30.55;13.22;;;;;;;6.94;88.31;100834.35;1783129;80;26129;-56
2020/12/11 04:43:52;;;;;;;31.15;12.98;;;;;;;6.99;88.37;100840.20;1790256;79;27514;-56
2020/12/11 04:46:20;;;;;;;31.70;12.93;;;;;;;7.03;88.56;100833.68;1779765;79;25786;-56
2020/12/11 04:48:49;;;;;;;41.88;15.35;;;;;;;7.05;88.52;100823.23;1724146;83;25459;-57
2020/12/11 04:51:18;;;;;;;30.20;12.73;;;;;;;7.10;88.40;100832.27;1733608;82;25679;-56
2020/12/11 04:53:46;;;;;;;33.35;14.07;;;;;;;7.12;88.02;100833.48;1749821;79;25829;-56
2020/12/11 04:56:15;;;;;;;28.20;13.70;;;;;;;7.13;87.70;100837.37;1758438;79;27535;-56
2020/12/11 04:58:45;;;;;;;24.65;11.18;;;;;;;7.16;87.69;100831.80;1762440;81;26034;-56
2020/12/11 05:01:26;;;;;;;27.50;11.48;;;;;;;7.18;87.90;100843.25;1778673;79;25703;-56
2020/12/11 05:03:55;;;;;;;29.37;10.53;;;;;;;7.18;87.90;100849.94;1779709;79;26398;-56
2020/12/11 05:06:25;;;;;;;27.20;12.03;;;;;;;7.15;87.51;100847.98;1762773;79;25728;-56
2020/12/11 05:09:17;;;;;;;28.40;12.47;;;;;;;7.13;87.52;100844.55;1762472;81;27574;-56
2020/12/11 05:11:47;;;;;;;28.38;11.68;;;;;;;7.13;87.56;100844.05;1771230;79;25707;-56
2020/12/11 05:14:30;;;;;;;37.03;14.83;;;;;;;7.13;87.70;100845.39;1793564;79;25754;-56
2020/12/11 05:17:06;;;;;;;28.45;12.18;;;;;;;7.12;87.38;100850.40;1793414;79;25646;-56
2020/12/11 05:19:51;;;;;;;21.37;11.53;;;;;;;7.13;87.52;100856.59;1793821;79;25734;-56
2020/12/11 05:22:24;;;;;;;23.57;12.05;;;;;;;7.08;87.11;100854.25;1793671;79;27520;-59
2020/12/11 05:24:56;;;;;;;28.15;11.53;;;;;;;7.13;87.32;100851.24;1800217;78;26237;-56
2020/12/11 05:27:36;;;;;;;30.10;12.03;;;;;;;7.10;87.04;100852.33;1812061;79;25633;-56
2020/12/11 05:30:18;;;;;;;34.53;12.03;;;;;;;7.10;87.21;100860.35;1811739;79;25557;-56
2020/12/11 05:32:56;;;;;;;39.80;13.68;;;;;;;7.07;87.31;100852.53;1796503;78;26228;-56
2020/12/11 05:35:29;;;;;;;25.50;11.03;;;;;;;7.07;87.39;100858.39;1783842;79;28422;-56
2020/12/11 05:38:07;;;;;;;28.40;12.30;;;;;;;7.06;87.32;100861.53;1811565;79;25630;-57
2020/12/11 05:40:43;;;;;;;26.73;12.82;;;;;;;7.06;87.31;100860.19;1806858;78;25644;-57
2020/12/11 05:43:16;;;;;;;26.15;12.20;;;;;;;7.07;87.20;100865.08;1779320;80;26512;-55
2020/12/11 05:45:53;;;;;;;32.28;13.78;;;;;;;7.10;87.16;100882.22;1797002;79;25711;-55
2020/12/11 05:48:38;;;;;;;33.67;12.03;;;;;;;7.12;87.23;100874.95;1809784;78;27513;-55
2020/12/11 05:51:15;;;;;;;26.70;12.70;;;;;;;7.14;87.21;100885.06;1798247;79;25875;-57
2020/12/11 05:53:44;;;;;;;31.50;13.58;;;;;;;7.17;86.99;100884.84;1779329;80;25491;-57
2020/12/11 05:56:12;;;;;;;34.80;13.38;;;;;;;7.16;86.95;100883.13;1779373;80;25641;-57
2020/12/11 05:58:42;;;;;;;40.50;12.95;;;;;;;7.16;86.79;100889.83;1779386;80;26547;-56
2020/12/11 06:01:18;;;;;;;29.37;12.50;;;;;;;7.14;86.74;100885.90;1751209;80;28531;-56
2020/12/11 06:03:46;;;;;;;31.82;13.13;;;;;;;7.10;86.63;100892.45;1779274;80;25514;-56
2020/12/11 06:06:18;;;;;;;28.77;13.10;;;;;;;7.08;86.53;100886.84;1787704;79;25841;-56
2020/12/11 06:08:46;;;;;;;38.42;14.20;;;;;;;7.05;86.52;100891.91;1796726;79;25648;-56
2020/12/11 06:11:22;;;;;;;31.02;12.53;;;;;;;6.99;86.44;100891.86;1801630;78;26201;-57
2020/12/11 06:13:56;;;;;;;27.25;13.28;;;;;;;6.97;86.29;100892.95;1796895;79;27521;-56
2020/12/11 06:16:26;;;;;;;28.27;12.75;;;;;;;6.94;86.34;100887.34;1797461;78;26086;-56
2020/12/11 06:19:03;;;;;;;25.00;12.13;;;;;;;6.92;86.37;100888.42;1738054;79;25661;-56
2020/12/11 06:21:32;;;;;;;34.50;14.35;;;;;;;6.87;86.35;100889.59;1738255;82;25708;-56
2020/12/11 06:24:00;;;;;;;25.55;12.40;;;;;;;6.83;86.40;100889.45;1738208;81;26207;-56
2020/12/11 06:26:28;;;;;;;26.15;13.55;;;;;;;6.82;86.26;100889.55;1730956;82;27436;-56
2020/12/11 06:28:56;;;;;;;26.23;13.35;;;;;;;6.80;86.32;100895.50;1796688;79;25718;-56
2020/12/11 06:31:23;;;;;;;26.77;12.78;;;;;;;6.79;86.29;100895.97;1809623;79;25505;-56
2020/12/11 06:33:56;;;;;;;30.75;13.85;;;;;;;6.77;86.29;100895.71;1794617;79;26624;-56
2020/12/11 06:36:26;;;;;;;32.20;12.20;;;;;;;6.73;86.36;100890.57;1812520;78;26928;-56
2020/12/11 06:38:57;;;;;;;23.25;12.63;;;;;;;6.72;86.30;100896.03;1795851;79;28975;-56
2020/12/11 06:41:32;;;;;;;25.08;12.45;;;;;;;6.72;86.17;100896.03;1792817;79;25774;-56
2020/12/11 06:44:13;;;;;;;34.88;13.50;;;;;;;6.69;86.20;100896.24;1783794;79;25614;-56
2020/12/11 06:46:41;;;;;;;30.12;13.22;;;;;;;6.67;86.31;100886.16;1798219;79;25680;-56
2020/12/11 06:49:19;;;;;;;32.45;13.30;;;;;;;6.67;86.31;100887.00;1796361;78;25749;-56
2020/12/11 06:51:52;;;;;;;27.00;12.53;;;;;;;6.64;86.15;100888.55;1811457;79;28550;-56
2020/12/11 06:54:24;;;;;;;;;;;;;;;6.64;85.91;100891.71;1813856;79;26172;-55
2020/12/11 06:56:58;;;;;;;34.03;14.63;;;;;;;6.60;85.85;100898.22;1811312;78;25693;-56
2020/12/11 06:59:36;;;;;;;27.65;12.15;;;;;;;6.55;85.87;100899.88;1809658;77;25631;-56
2020/12/11 07:02:15;;;;;;;32.00;13.95;;;;;;;6.53;85.70;100905.34;1800336;79;25756;-56
2020/12/11 07:04:43;;;;;;;33.45;14.68;;;;;;;6.48;85.64;100889.25;1791696;79;27760;-56
2020/12/11 07:07:14;;;;;;;24.85;12.45;;;;;;;6.46;85.79;100891.16;1728739;81;25484;-56
2020/12/11 07:09:45;;;;;;;31.33;12.95;;;;;;;6.47;85.73;100890.20;1735239;82;25689;-56
2020/12/11 07:12:17;;;;;;;31.15;13.08;;;;;;;6.46;85.78;100880.48;1733872;82;25656;-56
2020/12/11 07:14:47;;;;;;;28.73;15.23;;;;;;;6.47;85.78;100892.42;1748281;81;26086;-56
2020/12/11 07:17:27;;;;;;;31.23;13.22;;;;;;;6.48;85.74;100892.80;1770300;81;28403;-56
2020/12/11 07:19:59;;;;;;;28.67;13.08;;;;;;;6.49;85.73;100883.81;1729167;82;43228;-55
2020/12/11 07:22:32;;;;;;;33.20;13.15;;;;;;;6.47;85.75;100887.07;1756166;81;25719;-56
2020/12/11 07:25:00;;;;;;;28.60;13.45;;;;;;;6.51;85.65;100882.36;1795730;79;26497;-56
2020/12/11 07:27:28;;;;;;;46.77;18.48;;;;;;;6.52;85.57;100885.41;1781363;79;25761;-56
2020/12/11 07:29:56;;;;;;;53.70;23.42;;;;;;;6.52;85.61;100882.74;1784839;80;28558;-56
2020/12/11 07:32:24;;;;;;;40.63;20.00;;;;;;;6.56;85.52;100886.43;1780660;79;25705;-56
2020/12/11 07:34:53;;;;;;;36.28;15.18;;;;;;;6.57;85.48;100890.81;1791882;79;25493;-56
2020/12/11 07:37:21;;;;;;;28.40;13.48;;;;;;;6.60;85.41;100885.73;1792382;80;26481;-56
2020/12/11 07:39:49;;;;;;;28.57;13.70;;;;;;;6.65;85.48;100888.92;1791837;80;25628;-56
2020/12/11 07:42:22;;;;;;;28.60;14.43;;;;;;;6.71;84.79;100892.98;1762314;81;28152;-56
2020/12/11 07:44:50;;;;;;;26.80;12.95;;;;;;;6.74;84.94;100891.44;1762214;81;25686;-56
2020/12/11 07:47:19;;;;;;;34.65;14.13;;;;;;;6.76;84.92;100893.53;1786195;80;25732;-56
2020/12/11 07:49:49;;;;;;;28.65;13.50;;;;;;;6.79;84.74;100899.98;1762238;80;26502;-56
2020/12/11 07:52:23;;;;;;;29.80;14.55;;;;;;;6.83;84.82;100900.62;1765248;80;26536;-56
2020/12/11 07:54:51;;;;;;;24.77;14.20;;;;;;;6.88;84.94;100901.16;1764724;81;28917;-56
2020/12/11 07:57:26;;;;;;;24.32;13.35;;;;;;;6.89;84.17;100891.69;1765008;81;26122;-56
2020/12/11 08:00:06;;;;;;;30.08;12.78;;;;;;;6.88;83.93;100895.31;1764778;81;25455;-56
2020/12/11 08:02:35;;;;;;;29.70;14.15;;;;;;;6.88;83.83;100898.48;1765179;81;26539;-56
2020/12/11 08:05:08;;;;;;;28.40;13.15;;;;;;;6.89;83.41;100899.70;1764993;81;25657;-56
2020/12/11 08:07:37;;;;;;;29.57;13.00;;;;;;;6.91;83.50;100897.41;1763290;81;27593;-56
2020/12/11 08:10:18;;;;;;;33.40;13.75;;;;;;;6.89;83.33;100899.70;1767456;80;25668;-56
2020/12/11 08:12:47;;;;;;;28.67;13.28;;;;;;;6.89;83.13;100902.88;1763193;80;25652;-56
2020/12/11 08:15:33;;;;;;;26.87;11.10;;;;;;;6.89;83.08;100900.20;1762424;81;26501;-56
2020/12/11 08:18:20;;;;;;;25.40;11.95;;;;;;;6.89;82.51;100894.36;1772844;80;25774;-56
2020/12/11 08:21:00;;;;;;;28.52;14.33;;;;;;;6.86;83.01;100892.38;1769508;79;27499;-56
2020/12/11 08:23:39;;;;;;;27.45;13.40;;;;;;;6.91;82.93;100883.54;1780785;79;25710;-56
2020/12/11 08:26:20;;;;;;;41.65;17.87;;;;;;;6.86;82.45;100891.89;1771750;79;25699;-56
2020/12/11 08:29:08;;;;;;;30.08;15.85;;;;;;;6.82;82.27;100882.39;1791926;79;25817;-56
2020/12/11 08:31:43;;;;;;;24.40;13.13;;;;;;;6.81;82.21;100877.16;1793829;79;25723;-56
2020/12/11 08:34:15;;;;;;;33.10;13.75;;;;;;;6.80;81.97;100873.62;1793963;79;28532;-56
2020/12/11 08:36:46;;;;;;;32.65;13.75;;;;;;;6.76;82.05;100871.27;1793809;79;25725;-56
2020/12/11 08:39:28;;;;;;;27.82;12.35;;;;;;;6.75;82.07;100867.75;1793063;79;26325;-56
2020/12/11 08:42:28;;;;;;;24.37;12.70;;;;;;;6.77;81.87;100860.95;1764419;79;25615;-56
2020/12/11 08:48:00;;;;;;;26.48;13.28;;;;;;;6.82;81.60;100854.31;1769827;80;27518;-56
2020/12/11 08:52:49;;;;;;;29.93;13.93;;;;;;;6.86;80.46;100865.64;1777153;80;25734;-56
2020/12/11 08:55:18;;;;;;;25.08;12.33;;;;;;;6.86;80.81;100865.64;1782832;79;25740;-56
2020/12/11 08:57:49;;;;;;;25.68;12.63;;;;;;;6.88;80.10;100865.06;1781549;79;25713;-56
2020/12/11 09:00:17;;;;;;;30.68;14.68;;;;;;;6.87;79.84;100858.84;1793013;78;27528;-57
2020/12/11 09:02:45;;;;;;;32.00;15.45;;;;;;;6.89;79.10;100861.42;1799635;79;25690;-56
2020/12/11 09:05:14;;;;;;;25.02;12.05;;;;;;;6.85;78.99;100870.16;1790445;79;25838;-57
2020/12/11 09:07:41;;;;;;;23.27;11.20;;;;;;;6.83;79.06;100870.73;1781422;79;25628;-57
2020/12/11 09:10:09;;;;;;;29.65;14.23;;;;;;;6.84;79.38;100867.56;1724348;83;26183;-57
2020/12/11 09:12:37;;;;;;;32.00;14.93;;;;;;;6.85;78.88;100867.48;1733588;82;28907;-57
2020/12/11 09:15:09;;;;;;;37.33;14.90;;;;;;;6.86;79.25;100857.63;1715117;82;25682;-57
2020/12/11 09:17:37;;;;;;;29.40;12.90;;;;;;;6.90;78.86;100859.12;1762555;80;25735;-57
2020/12/11 09:20:06;;;;;;;24.15;12.65;;;;;;;6.88;77.99;100863.22;1762522;81;25635;-57
2020/12/11 09:22:34;;;;;;;23.45;12.50;;;;;;;6.86;78.30;100852.27;1762501;81;25671;-57
2020/12/11 09:25:04;;;;;;;28.20;14.38;;;;;;;6.89;78.59;100856.91;1763082;79;27518;-57
2020/12/11 09:27:36;;;;;;;24.25;12.58;;;;;;;6.89;77.71;100839.53;1765140;81;25685;-57
2020/12/11 09:30:21;;;;;;;24.60;13.15;;;;;;;6.89;77.15;100835.52;1765051;81;25705;-57
2020/12/11 09:33:27;;;;;;;24.55;13.45;;;;;;;6.87;77.35;100848.14;1763559;81;26912;-57
2020/12/11 09:35:10;;;;;;;21.00;12.80;;;;;;;6.85;77.36;100843.87;1756170;81;25756;-57
2020/12/11 09:37:37;;;;;;;19.65;11.43;;;;;;;6.84;76.91;100844.84;1765115;81;27521;-57
2020/12/11 09:40:06;;;;;;;26.55;14.18;;;;;;;6.78;76.75;100851.97;1769818;80;25594;-57
2020/12/11 09:45:42;;;;;;;21.33;11.78;;;;;;;6.72;76.69;100851.92;1838276;78;25600;-57
2020/12/11 09:48:26;;;;;;;20.80;11.80;;;;;;;6.63;76.98;100856.12;1776712;80;26313;-57
2020/12/11 09:56:28;;;;;;;19.55;10.75;;;;;;;6.59;76.65;100867.98;1805626;79;25673;-57
2020/12/11 09:59:00;;;;;;;18.57;10.13;;;;;;;6.63;76.75;100864.14;1805505;79;27506;-57
2020/12/11 10:01:42;;;;;;;18.20;10.93;;;;;;;6.69;76.41;100860.15;1805499;79;25588;-57
2020/12/11 10:03:58;;;;;;;20.97;10.82;;;;;;;6.71;76.50;100859.10;1798388;79;25737;-57
2020/12/11 10:06:27;;;;;;;23.95;12.33;;;;;;;6.75;76.01;100861.07;1755076;81;26049;-57
2020/12/11 10:08:55;;;;;;;26.48;11.70;;;;;;;6.76;76.15;100847.20;1755121;81;25652;-57
2020/12/11 10:11:24;;;;;;;19.05;10.68;;;;;;;6.79;76.03;100847.84;1755026;81;28423;-57
2020/12/11 10:13:53;;;;;;;22.37;11.20;;;;;;;6.85;75.41;100848.76;1755008;81;25540;-57
2020/12/11 10:16:21;;;;;;;23.35;12.25;;;;;;;6.83;74.44;100841.32;1754932;81;25535;-57
2020/12/11 10:19:02;;;;;;;22.37;10.72;;;;;;;6.78;74.07;100858.66;1777413;80;25720;-55
2020/12/11 10:21:30;;;;;;;19.25;10.72;;;;;;;6.66;74.26;100849.70;1776133;80;25708;-58
2020/12/11 10:23:58;;;;;;;22.95;11.68;;;;;;;6.61;73.56;100844.67;1779054;80;27576;-57
2020/12/11 10:26:26;;;;;;;16.67;10.48;;;;;;;6.49;74.18;100843.73;1812680;79;25661;-57
2020/12/11 10:28:54;;;;;;;19.95;10.20;;;;;;;6.46;74.14;100831.03;1781917;80;25633;-57
2020/12/11 10:31:30;;;;;;;24.80;11.75;;;;;;;6.42;74.65;100822.38;1812580;78;25703;-57
2020/12/11 10:33:59;;;;;;;17.77;10.15;;;;;;;6.45;74.41;100820.84;1782060;80;25624;-56
2020/12/11 10:36:32;;;;;;;17.82;10.70;;;;;;;6.42;74.31;100811.69;1762690;79;28513;-55
2020/12/11 10:39:00;;;;;;;21.12;8.98;;;;;;;6.39;74.33;100795.41;1790444;80;25460;-55
2020/12/11 10:41:28;;;;;;;25.08;11.22;;;;;;;6.39;74.27;100791.39;1790543;80;25421;-55
2020/12/11 10:43:56;;;;;;;23.60;12.05;;;;;;;6.35;74.17;100787.71;1790445;80;25757;-55
2020/12/11 10:46:25;;;;;;;20.05;11.78;;;;;;;6.32;74.49;100787.95;1787881;80;25732;-56
2020/12/11 10:48:53;;;;;;;19.98;11.40;;;;;;;6.32;74.54;100778.59;1790600;80;27524;-55
2020/12/11 10:51:22;;;;;;;18.32;9.73;;;;;;;6.37;74.93;100776.44;1790507;80;26605;-56
2020/12/11 10:53:50;;;;;;;16.57;9.95;;;;;;;6.39;74.56;100779.86;1790583;80;25681;-56
2020/12/11 10:56:20;;;;;;;25.00;11.25;;;;;;;6.36;74.29;100788.96;1790283;80;25648;-56
2020/12/11 10:58:48;;;;;;;17.15;10.28;;;;;;;6.38;74.51;100788.84;1790301;80;25702;-55
2020/12/11 11:01:17;;;;;;;23.92;12.73;;;;;;;6.39;74.40;100790.55;1790297;80;28493;-56
2020/12/11 11:03:46;;;;;;;18.87;11.45;;;;;;;6.41;74.35;100797.95;1790152;80;26231;-56
2020/12/11 11:06:27;;;;;;;18.82;12.13;;;;;;;6.44;74.33;100791.06;1789915;80;25686;-56
2020/12/11 11:22:14;;;;;;;20.62;11.60;;;;;;;6.35;74.24;100770.34;1805437;79;25725;-57
2020/12/11 11:27:26;;;;;;;19.05;10.45;;;;;;;6.25;74.27;100771.48;1805484;79;25563;-57
2020/12/11 11:29:51;;;;;;;24.57;11.25;;;;;;;6.24;74.55;100759.09;1805270;79;26112;-57
2020/12/11 11:32:19;;;;;;;21.57;11.80;;;;;;;6.24;74.73;100754.59;1805517;79;27676;-57
2020/12/11 11:34:47;;;;;;;18.25;11.28;;;;;;;6.23;74.55;100760.05;1805468;79;25732;-57
2020/12/11 11:37:15;;;;;;;20.97;11.78;;;;;;;6.25;74.91;100756.80;1805631;79;25508;-57
2020/12/11 11:39:43;;;;;;;21.45;10.68;;;;;;;6.24;74.51;100757.75;1805366;79;25799;-57
2020/12/11 11:42:12;;;;;;;20.32;11.00;;;;;;;6.20;74.52;100757.12;1735791;82;25644;-57
2020/12/11 11:45:02;;;;;;;23.75;11.00;;;;;;;6.13;74.54;100757.19;1734268;82;27514;-57
2020/12/11 11:47:30;;;;;;;26.45;12.47;;;;;;;6.05;74.48;100760.38;1714984;82;25486;-56
2020/12/11 11:50:26;;;;;;;23.45;12.98;;;;;;;5.95;74.63;100762.82;1737033;82;25770;-57
2020/12/11 11:52:58;;;;;;;27.82;14.25;;;;;;;5.91;75.00;100767.14;1709645;83;25690;-56
2020/12/11 11:55:20;;;;;;;24.52;14.43;;;;;;;5.89;74.96;100749.03;1736017;82;25669;-56
2020/12/11 11:57:57;;;;;;;26.25;13.68;;;;;;;5.89;74.96;100749.03;1692444;82;28001;-56
2020/12/11 12:00:25;;;;;;;28.38;13.68;;;;;;;5.83;74.52;100748.97;1711254;83;26347;-55
2020/12/11 12:02:53;;;;;;;38.67;14.40;;;;;;;5.71;74.69;100752.47;1736684;82;25520;-56
2020/12/11 12:05:21;;;;;;;26.17;13.35;;;;;;;5.58;74.61;100741.33;1711391;83;25652;-56